Smit Barbados — MSDU8 — position and weather

sailwx.info

Track history (hours):
 
Tides and Currents Weather Stations Pressure Air Temp Water Temp Dewpoint Dewpoint Depression Visibility Wind Speed Wind Dir Waves Ship Positions

Smit Barbados

Last reported at 2016-Sep-30 03:33 UTC. Time now 2016-Sep-30 05:02 UTC.
Position N 53°26' W 002°60'.

Length 30 m; draft 4.8 m.

Type: Tug. MMSI: 235055303.

Date/timePositionNaut miles runAvg speedWind from/ knotsBaromVisibWave heightAir tempDewpointWater temp
2016-Sep-30 03:33N 53°26' W 002°60'0 0.0
2016-Sep-30 02:33N 53°26' W 002°60'1 0.5
2016-Sep-29 23:33N 53°27' W 003°01'1 0.3
2016-Sep-29 21:33N 53°28' W 003°01'0 0.2
2016-Sep-29 20:33N 53°28' W 003°01'1 1.2
2016-Sep-29 19:33N 53°26' W 003°01'1 0.5
2016-Sep-29 16:33N 53°28' W 003°02'2 2.1
2016-Sep-29 15:33N 53°26' W 002°60'0 0.0
2016-Sep-29 14:33N 53°26' W 002°60'0 0.3
2016-Sep-29 13:33N 53°26' W 003°00'0 0.1
2016-Sep-29 08:33N 53°26' W 002°60'0 0.0
2016-Sep-29 07:33N 53°26' W 002°60'0 0.0
2016-Sep-29 00:33N 53°26' W 002°60'0 0.0
2016-Sep-28 21:33N 53°26' W 002°60'0 0.0
2016-Sep-28 19:33N 53°26' W 002°60'0 0.0
2016-Sep-28 16:33N 53°26' W 002°60'0 0.0
2016-Sep-28 15:33N 53°26' W 002°60'0 0.0
2016-Sep-28 12:33N 53°26' W 002°60'2 0.5
2016-Sep-28 08:33N 53°28' W 003°01'1 0.2
2016-Sep-28 03:33N 53°27' W 003°01'0 0.0
2016-Sep-28 02:33N 53°27' W 003°01'0 0.0
2016-Sep-28 01:33N 53°27' W 003°01'0 0.0
2016-Sep-27 23:33N 53°26' W 003°01'4 0.9
2016-Sep-27 19:33N 53°23' W 002°60'3 0.6
2016-Sep-27 14:33N 53°26' W 002°60'0 0.0
2016-Sep-27 13:33N 53°26' W 002°60'0 0.0
2016-Sep-27 10:33N 53°26' W 002°60'0 0.0
2016-Sep-27 00:33N 53°26' W 002°60'1 0.4
2016-Sep-26 20:33N 53°27' W 003°01'0 0.1
2016-Sep-26 19:33N 53°27' W 003°01'4 1.1
2016-Sep-26 15:33N 53°23' W 002°60'3 1.5
2016-Sep-26 13:33N 53°26' W 002°60'0 0.0
2016-Sep-26 11:33N 53°26' W 002°60'0 0.0
2016-Sep-26 08:33N 53°26' W 002°60'0 0.0
2016-Sep-26 02:33N 53°26' W 002°60'0 0.0
2016-Sep-26 01:33N 53°26' W 002°60'0 0.0
2016-Sep-26 00:33N 53°26' W 002°60'0 0.0
2016-Sep-25 21:33N 53°26' W 002°60'0 0.0
2016-Sep-25 17:33N 53°26' W 002°60'0 0.0
2016-Sep-25 16:33N 53°26' W 002°60'0 0.0
2016-Sep-25 15:33N 53°26' W 002°60'0 0.0
2016-Sep-25 14:33N 53°26' W 002°60'0 0.0
2016-Sep-25 12:33N 53°26' W 002°60'0 0.0
2016-Sep-25 11:33N 53°26' W 002°60'0 0.0
2016-Sep-25 10:33N 53°26' W 002°60'0 0.0
2016-Sep-25 09:32N 53°26' W 002°60'0 0.0
2016-Sep-25 07:33N 53°26' W 002°60'0 0.0
2016-Sep-25 04:33N 53°26' W 002°60'0 0.0
2016-Sep-25 00:33N 53°26' W 002°60'0 0.0
2016-Sep-24 22:33N 53°26' W 002°60'0 0.0
2016-Sep-24 21:33N 53°26' W 002°60'0 0.0
2016-Sep-24 19:33N 53°26' W 002°60'0 0.0
2016-Sep-24 18:33N 53°26' W 002°60'2 1.7
2016-Sep-24 17:33N 53°27' W 003°01'0 0.1
2016-Sep-24 16:34N 53°27' W 003°01'2 0.8
2016-Sep-24 14:33N 53°26' W 003°00'0 0.1
2016-Sep-24 12:34N 53°26' W 002°60'0 0.0
2016-Sep-24 10:34N 53°26' W 002°60'0 0.0
2016-Sep-24 09:34N 53°26' W 002°60'0 0.0
2016-Sep-24 03:33N 53°26' W 002°60'2 1.7
2016-Sep-24 02:33N 53°27' W 003°01'2 1.6
2016-Sep-24 01:33N 53°26' W 003°00'0 0.2
2016-Sep-24 00:33N 53°26' W 002°60'0 0.0
2016-Sep-23 19:33N 53°26' W 002°60'0 0.0
2016-Sep-23 17:33N 53°26' W 002°60'0 0.0
2016-Sep-23 16:33N 53°26' W 002°60'1 0.9
2016-Sep-23 15:33N 53°27' W 003°01'1 0.4
2016-Sep-23 13:33N 53°26' W 002°60'0 0.0
2016-Sep-23 09:33N 53°26' W 002°60'0 0.0
2016-Sep-23 06:33N 53°26' W 002°60'0 0.0
2016-Sep-23 04:33N 53°26' W 002°60'0 0.0
2016-Sep-23 03:33N 53°26' W 002°60'0 0.0
2016-Sep-23 02:33N 53°26' W 002°60'2 2.0
2016-Sep-23 01:33N 53°28' W 003°02'1 0.8
2016-Sep-23 00:33N 53°27' W 003°01'2 1.8
2016-Sep-22 23:33N 53°28' W 003°03'2 0.5
2016-Sep-22 20:33N 53°27' W 003°01'0 0.0
2016-Sep-22 12:33N 53°27' W 003°01'1 0.1
2016-Sep-22 04:33N 53°26' W 002°60'0 0.0
2016-Sep-22 03:33N 53°26' W 002°60'2 0.5
2016-Sep-22 00:33N 53°27' W 003°01'2 1.5
2016-Sep-21 23:32N 53°26' W 002°60'0 0.0
2016-Sep-21 22:33N 53°26' W 002°60'0 0.0
2016-Sep-21 19:33N 53°26' W 002°60'0 0.0
2016-Sep-21 16:33N 53°26' W 002°60'0 0.0
2016-Sep-21 09:33N 53°26' W 002°60'0 0.0
2016-Sep-21 08:33N 53°26' W 002°60'0 0.0
2016-Sep-21 05:33N 53°26' W 002°60'0 0.0
2016-Sep-21 03:33N 53°26' W 002°60'0 0.0
2016-Sep-21 02:33N 53°26' W 002°60'0 0.0
2016-Sep-20 17:33N 53°26' W 002°60'0 0.0
2016-Sep-20 14:33N 53°26' W 002°60'0 0.0
2016-Sep-20 13:33N 53°26' W 002°60'0 0.0
2016-Sep-20 10:33N 53°26' W 002°60'0 0.0
2016-Sep-20 08:33N 53°26' W 002°60'0 0.0
2016-Sep-20 07:33N 53°26' W 002°60'0 0.0
2016-Sep-20 06:33N 53°26' W 002°60'  
Track history (hours):
 
Tides and Currents Weather Stations Pressure Air Temp Water Temp Dewpoint Dewpoint Depression Visibility Wind Speed Wind Dir Waves Ship Positions

Smit Barbados

Last reported at 2016-Sep-30 03:33 UTC. Time now 2016-Sep-30 05:02 UTC.
Position N 53°26' W 002°60'.

Length 30 m; draft 4.8 m.

Type: Tug. MMSI: 235055303.

Date/timePositionNaut miles runAvg speedWind from/ knotsBaromVisibWave heightAir tempDewpointWater temp
2016-Sep-30 03:33N 53°26' W 002°60'0 0.0
2016-Sep-30 02:33N 53°26' W 002°60'1 0.5
2016-Sep-29 23:33N 53°27' W 003°01'1 0.3
2016-Sep-29 21:33N 53°28' W 003°01'0 0.2
2016-Sep-29 20:33N 53°28' W 003°01'1 1.2
2016-Sep-29 19:33N 53°26' W 003°01'1 0.5
2016-Sep-29 16:33N 53°28' W 003°02'2 2.1
2016-Sep-29 15:33N 53°26' W 002°60'0 0.0
2016-Sep-29 14:33N 53°26' W 002°60'0 0.3
2016-Sep-29 13:33N 53°26' W 003°00'0 0.1
2016-Sep-29 08:33N 53°26' W 002°60'0 0.0
2016-Sep-29 07:33N 53°26' W 002°60'0 0.0
2016-Sep-29 00:33N 53°26' W 002°60'0 0.0
2016-Sep-28 21:33N 53°26' W 002°60'0 0.0
2016-Sep-28 19:33N 53°26' W 002°60'0 0.0
2016-Sep-28 16:33N 53°26' W 002°60'0 0.0
2016-Sep-28 15:33N 53°26' W 002°60'0 0.0
2016-Sep-28 12:33N 53°26' W 002°60'2 0.5
2016-Sep-28 08:33N 53°28' W 003°01'1 0.2
2016-Sep-28 03:33N 53°27' W 003°01'0 0.0
2016-Sep-28 02:33N 53°27' W 003°01'0 0.0
2016-Sep-28 01:33N 53°27' W 003°01'0 0.0
2016-Sep-27 23:33N 53°26' W 003°01'4 0.9
2016-Sep-27 19:33N 53°23' W 002°60'3 0.6
2016-Sep-27 14:33N 53°26' W 002°60'0 0.0
2016-Sep-27 13:33N 53°26' W 002°60'0 0.0
2016-Sep-27 10:33N 53°26' W 002°60'0 0.0
2016-Sep-27 00:33N 53°26' W 002°60'1 0.4
2016-Sep-26 20:33N 53°27' W 003°01'0 0.1
2016-Sep-26 19:33N 53°27' W 003°01'4 1.1
2016-Sep-26 15:33N 53°23' W 002°60'3 1.5
2016-Sep-26 13:33N 53°26' W 002°60'0 0.0
2016-Sep-26 11:33N 53°26' W 002°60'0 0.0
2016-Sep-26 08:33N 53°26' W 002°60'0 0.0
2016-Sep-26 02:33N 53°26' W 002°60'0 0.0
2016-Sep-26 01:33N 53°26' W 002°60'0 0.0
2016-Sep-26 00:33N 53°26' W 002°60'0 0.0
2016-Sep-25 21:33N 53°26' W 002°60'0 0.0
2016-Sep-25 17:33N 53°26' W 002°60'0 0.0
2016-Sep-25 16:33N 53°26' W 002°60'0 0.0
2016-Sep-25 15:33N 53°26' W 002°60'0 0.0
2016-Sep-25 14:33N 53°26' W 002°60'0 0.0
2016-Sep-25 12:33N 53°26' W 002°60'0 0.0
2016-Sep-25 11:33N 53°26' W 002°60'0 0.0
2016-Sep-25 10:33N 53°26' W 002°60'0 0.0
2016-Sep-25 09:32N 53°26' W 002°60'0 0.0
2016-Sep-25 07:33N 53°26' W 002°60'0 0.0
2016-Sep-25 04:33N 53°26' W 002°60'0 0.0
2016-Sep-25 00:33N 53°26' W 002°60'0 0.0
2016-Sep-24 22:33N 53°26' W 002°60'0 0.0
2016-Sep-24 21:33N 53°26' W 002°60'0 0.0
2016-Sep-24 19:33N 53°26' W 002°60'0 0.0
2016-Sep-24 18:33N 53°26' W 002°60'2 1.7
2016-Sep-24 17:33N 53°27' W 003°01'0 0.1
2016-Sep-24 16:34N 53°27' W 003°01'2 0.8
2016-Sep-24 14:33N 53°26' W 003°00'0 0.1
2016-Sep-24 12:34N 53°26' W 002°60'0 0.0
2016-Sep-24 10:34N 53°26' W 002°60'0 0.0
2016-Sep-24 09:34N 53°26' W 002°60'0 0.0
2016-Sep-24 03:33N 53°26' W 002°60'2 1.7
2016-Sep-24 02:33N 53°27' W 003°01'2 1.6
2016-Sep-24 01:33N 53°26' W 003°00'0 0.2
2016-Sep-24 00:33N 53°26' W 002°60'0 0.0
2016-Sep-23 19:33N 53°26' W 002°60'0 0.0
2016-Sep-23 17:33N 53°26' W 002°60'0 0.0
2016-Sep-23 16:33N 53°26' W 002°60'1 0.9
2016-Sep-23 15:33N 53°27' W 003°01'1 0.4
2016-Sep-23 13:33N 53°26' W 002°60'0 0.0
2016-Sep-23 09:33N 53°26' W 002°60'0 0.0
2016-Sep-23 06:33N 53°26' W 002°60'0 0.0
2016-Sep-23 04:33N 53°26' W 002°60'0 0.0
2016-Sep-23 03:33N 53°26' W 002°60'0 0.0
2016-Sep-23 02:33N 53°26' W 002°60'2 2.0
2016-Sep-23 01:33N 53°28' W 003°02'1 0.8
2016-Sep-23 00:33N 53°27' W 003°01'2 1.8
2016-Sep-22 23:33N 53°28' W 003°03'2 0.5
2016-Sep-22 20:33N 53°27' W 003°01'0 0.0
2016-Sep-22 12:33N 53°27' W 003°01'1 0.1
2016-Sep-22 04:33N 53°26' W 002°60'0 0.0
2016-Sep-22 03:33N 53°26' W 002°60'2 0.5
2016-Sep-22 00:33N 53°27' W 003°01'2 1.5
2016-Sep-21 23:32N 53°26' W 002°60'0 0.0
2016-Sep-21 22:33N 53°26' W 002°60'0 0.0
2016-Sep-21 19:33N 53°26' W 002°60'0 0.0
2016-Sep-21 16:33N 53°26' W 002°60'0 0.0
2016-Sep-21 09:33N 53°26' W 002°60'0 0.0
2016-Sep-21 08:33N 53°26' W 002°60'0 0.0
2016-Sep-21 05:33N 53°26' W 002°60'0 0.0
2016-Sep-21 03:33N 53°26' W 002°60'0 0.0
2016-Sep-21 02:33N 53°26' W 002°60'0 0.0
2016-Sep-20 17:33N 53°26' W 002°60'0 0.0
2016-Sep-20 14:33N 53°26' W 002°60'0 0.0
2016-Sep-20 13:33N 53°26' W 002°60'0 0.0
2016-Sep-20 10:33N 53°26' W 002°60'0 0.0
2016-Sep-20 08:33N 53°26' W 002°60'0 0.0
2016-Sep-20 07:33N 53°26' W 002°60'0 0.0
2016-Sep-20 06:33N 53°26' W 002°60'  

Dump ship's entire track history